Time;durP1;ratioP1;P1;durP2;ratioP2;P2;SDS_P1;SDS_P2;PMS_P1;PMS_P2;Temp;Humidity;BMP_temperature;BMP_pressure;BME280_temperature;BME280_humidity;BME280_pressure;Samples;Min_cycle;Max_cycle;Signal;HPM_P1;HPM_P2
2021/04/26 00:00:32;;;;;;;17.07;6.20;;;;;;;5.22;58.51;99485.67;4378702;80;43977;-85
2021/04/26 00:06:36;;;;;;;12.35;5.33;;;;;;;5.22;59.46;99475.01;4356275;80;43272;-84
2021/04/26 00:12:38;;;;;;;15.98;6.22;;;;;;;5.19;60.45;99474.05;4374881;80;43943;-84
2021/04/26 00:18:42;;;;;;;20.30;7.33;;;;;;;5.15;61.02;99480.26;4331300;80;43930;-84
2021/04/26 00:24:44;;;;;;;15.38;6.60;;;;;;;5.02;60.94;99484.09;4368106;80;43931;-85
2021/04/26 00:30:46;;;;;;;16.77;7.50;;;;;;;5.12;59.88;99495.30;4352013;80;43935;-83
2021/04/26 00:36:48;;;;;;;18.07;7.85;;;;;;;5.17;58.55;99490.75;4383557;80;43905;-84
2021/04/26 00:42:52;;;;;;;19.73;8.15;;;;;;;5.09;58.03;99489.50;4370002;80;28603;-85
2021/04/26 00:48:55;;;;;;;21.30;8.77;;;;;;;5.05;58.83;99490.37;4279943;81;28595;-84
2021/04/26 00:55:00;;;;;;;20.40;7.97;;;;;;;5.21;58.81;99488.02;4412243;80;43902;-84
2021/04/26 01:01:03;;;;;;;16.20;7.92;;;;;;;5.06;60.94;99485.88;4385994;80;43965;-85
2021/04/26 01:07:06;;;;;;;20.90;8.90;;;;;;;5.05;60.68;99489.53;4381834;80;43941;-84
2021/04/26 01:13:36;;;;;;;25.68;9.28;;;;;;;5.21;59.36;99482.69;4380288;80;41477;-84
2021/04/26 01:20:22;;;;;;;23.92;9.95;;;;;;;5.26;59.68;99486.98;4335960;81;44518;-85
2021/04/26 01:26:57;;;;;;;24.77;9.70;;;;;;;5.26;60.64;99481.64;4325806;81;28586;-86
2021/04/26 01:33:08;;;;;;;24.23;10.40;;;;;;;5.75;58.79;99481.18;4367227;81;43655;-85
2021/04/26 01:39:16;;;;;;;29.55;10.98;;;;;;;5.80;57.69;99473.42;4317463;81;43389;-85
2021/04/26 01:45:19;;;;;;;31.12;11.43;;;;;;;5.75;58.45;99473.98;4378701;81;43410;-86
2021/04/26 01:51:23;;;;;;;32.85;12.88;;;;;;;5.77;59.80;99470.61;4400617;79;44102;-84
2021/04/26 01:57:27;;;;;;;31.40;12.15;;;;;;;6.03;58.51;99464.44;4290711;81;43753;-85
2021/04/26 02:03:33;;;;;;;31.50;12.88;;;;;;;6.12;57.09;99457.95;4317716;81;28642;-84
2021/04/26 02:09:47;;;;;;;32.90;13.68;;;;;;;6.04;58.22;99447.40;4556312;77;70926;-85
2021/04/26 02:15:55;;;;;;;35.75;13.85;;;;;;;6.18;55.71;99454.53;4491861;78;44430;-86
2021/04/26 02:21:58;;;;;;;33.30;14.20;;;;;;;6.09;55.63;99454.34;4472390;79;44134;-84
2021/04/26 02:27:59;;;;;;;30.77;13.35;;;;;;;5.74;59.12;99450.18;4457479;79;44134;-84
2021/04/26 02:34:19;;;;;;;36.05;13.80;;;;;;;5.86;58.47;99440.12;4465729;79;44134;-84
2021/04/26 02:40:24;;;;;;;26.20;12.45;;;;;;;5.80;58.20;99440.91;4502618;79;43359;-84
2021/04/26 02:46:32;;;;;;;28.07;12.88;;;;;;;5.61;58.30;99434.33;4263353;82;43451;-84
2021/04/26 02:52:36;;;;;;;30.08;12.65;;;;;;;5.50;58.82;99430.82;4324186;81;43403;-83
2021/04/26 02:58:43;;;;;;;28.62;13.13;;;;;;;5.26;59.92;99427.48;4331084;81;43386;-85
2021/04/26 03:04:48;;;;;;;25.27;12.15;;;;;;;5.69;57.05;99425.41;4343354;81;42867;-84
2021/04/26 03:10:51;;;;;;;23.95;11.15;;;;;;;5.51;58.20;99432.47;4344512;81;43346;-86
2021/04/26 03:16:54;;;;;;;29.98;11.88;;;;;;;5.33;57.99;99432.89;4322962;81;43405;-87
2021/04/26 03:22:59;;;;;;;27.45;12.00;;;;;;;5.39;57.65;99438.81;4330246;81;43407;-84
2021/04/26 03:29:01;;;;;;;26.75;11.65;;;;;;;5.50;57.72;99444.16;4336500;81;42905;-84
2021/04/26 03:35:05;;;;;;;28.65;11.35;;;;;;;5.52;57.40;99448.30;4361298;81;43421;-84
2021/04/26 03:41:09;;;;;;;28.15;11.22;;;;;;;5.39;58.37;99444.96;4343500;81;28599;-84
2021/04/26 03:47:14;;;;;;;29.45;11.88;;;;;;;5.36;58.88;99446.67;4328803;81;43489;-84
2021/04/26 03:53:35;;;;;;;29.05;11.33;;;;;;;5.27;59.56;99449.12;4292927;82;43406;-85
2021/04/26 03:59:51;;;;;;;27.17;11.63;;;;;;;5.69;58.27;99449.41;4593699;75;85479;-85
2021/04/26 04:05:54;;;;;;;30.60;12.18;;;;;;;5.81;57.15;99456.39;4502793;79;43391;-85
2021/04/26 04:12:14;;;;;;;28.20;12.15;;;;;;;5.70;58.18;99465.73;4493982;78;43439;-85
2021/04/26 04:18:18;;;;;;;30.70;13.13;;;;;;;5.57;59.02;99461.91;4502109;78;43388;-84
2021/04/26 04:24:21;;;;;;;33.33;13.58;;;;;;;5.90;57.78;99463.78;4495347;78;44157;-87
2021/04/26 04:30:25;;;;;;;33.35;14.70;;;;;;;6.40;56.42;99475.37;4474335;78;44078;-84
2021/04/26 04:36:46;;;;;;;30.23;14.15;;;;;;;6.63;55.80;99479.65;4479863;79;44105;-82
2021/04/26 04:43:12;;;;;;;34.95;14.40;;;;;;;6.92;55.52;99477.77;4603431;76;84981;-84
2021/04/26 04:49:16;;;;;;;35.70;14.13;;;;;;;6.84;55.05;99482.76;4476455;79;28589;-81
2021/04/26 04:55:18;;;;;;;33.23;13.98;;;;;;;7.08;54.16;99472.64;4390519;80;28671;-85
2021/04/26 05:01:21;;;;;;;35.45;14.95;;;;;;;7.32;53.49;99485.19;4358845;81;44122;-86
2021/04/26 05:07:40;;;;;;;32.48;13.95;;;;;;;7.48;53.44;99490.72;4580930;76;85113;-84
2021/04/26 05:14:01;;;;;;;35.38;15.32;;;;;;;7.17;54.33;99489.83;4465901;79;28622;-83
2021/04/26 05:20:06;;;;;;;34.80;15.00;;;;;;;8.03;51.64;99492.52;4488078;79;28629;-86
2021/04/26 05:26:09;;;;;;;43.33;15.90;;;;;;;8.19;50.71;99493.98;4513316;79;28585;-83
2021/04/26 05:32:11;;;;;;;36.03;15.20;;;;;;;8.31;50.04;99482.66;4353458;79;28677;-85
2021/04/26 05:38:17;;;;;;;33.92;14.63;;;;;;;7.75;51.66;99484.10;4335045;81;28642;-84
2021/04/26 05:44:19;;;;;;;32.25;13.88;;;;;;;8.32;50.13;99485.14;4333393;81;28630;-85
2021/04/26 05:50:50;;;;;;;34.58;14.30;;;;;;;8.02;50.67;99476.14;4595309;76;84990;-85
2021/04/26 05:56:52;;;;;;;33.88;14.47;;;;;;;8.00;50.77;99482.72;4480130;79;28666;-84
2021/04/26 06:02:54;;;;;;;32.48;14.30;;;;;;;8.13;49.66;99471.21;4472659;78;28600;-85
2021/04/26 06:08:57;;;;;;;25.37;11.70;;;;;;;8.41;48.48;99471.55;4477357;79;28568;-83
2021/04/26 06:14:59;;;;;;;27.90;12.25;;;;;;;8.46;47.26;99479.78;4497506;79;28589;-86
2021/04/26 06:21:02;;;;;;;31.95;12.85;;;;;;;8.13;48.29;99480.09;4514118;79;28582;-84
2021/04/26 06:27:05;;;;;;;29.98;11.73;;;;;;;8.31;48.29;99476.80;4401680;80;28564;-86
2021/04/26 06:33:09;;;;;;;24.30;10.98;;;;;;;7.80;45.99;99479.48;4372264;81;28606;-84
2021/04/26 06:39:12;;;;;;;22.90;10.82;;;;;;;8.06;45.03;99464.52;4359745;81;28614;-85
2021/04/26 06:45:21;;;;;;;22.10;10.10;;;;;;;8.51;45.52;99469.31;4339195;81;29002;-84
2021/04/26 06:51:23;;;;;;;19.90;8.88;;;;;;;8.54;43.58;99458.16;4363342;81;28658;-87
2021/04/26 06:57:25;;;;;;;30.43;10.82;;;;;;;8.69;42.19;99463.81;4356396;81;28640;-87
2021/04/26 07:03:27;;;;;;;22.87;9.15;;;;;;;8.90;42.92;99461.42;4329610;81;28681;-89
2021/04/26 07:09:30;;;;;;;18.07;8.05;;;;;;;9.27;42.36;99455.03;4360306;80;28660;-86
2021/04/26 07:15:32;;;;;;;22.17;8.00;;;;;;;9.71;41.53;99445.82;4355576;80;28617;-86
2021/04/26 07:21:35;;;;;;;19.25;8.38;;;;;;;9.35;39.94;99444.56;4367101;80;28602;-87
2021/04/26 07:27:37;;;;;;;19.55;7.37;;;;;;;9.59;38.96;99449.72;4358495;81;28548;-88
2021/04/26 07:33:40;;;;;;;16.90;5.25;;;;;;;9.99;38.93;99443.28;4320869;80;28603;-88
2021/04/26 07:39:42;;;;;;;12.82;5.30;;;;;;;9.74;36.99;99449.44;4361009;80;28621;-87
2021/04/26 07:45:44;;;;;;;13.08;5.53;;;;;;;10.12;35.24;99450.44;4370219;80;28598;-85
2021/04/26 07:51:47;;;;;;;10.48;4.28;;;;;;;10.32;34.08;99459.67;4348189;80;28589;-87
2021/04/26 07:57:50;;;;;;;10.85;4.20;;;;;;;10.45;33.75;99456.59;4367975;81;28576;-90
2021/04/26 08:03:52;;;;;;;8.95;4.22;;;;;;;9.34;34.66;99456.34;4368901;80;28598;-88
2021/04/26 08:09:55;;;;;;;9.75;4.30;;;;;;;10.35;33.77;99457.58;4334656;80;28636;-89
2021/04/26 08:15:59;;;;;;;10.18;4.08;;;;;;;11.22;31.98;99435.77;4317100;80;28666;-89
2021/04/26 08:22:01;;;;;;;12.35;5.00;;;;;;;10.04;33.38;99454.19;4308803;81;28594;-88
2021/04/26 08:28:05;;;;;;;9.43;4.50;;;;;;;11.47;32.19;99432.97;4384632;80;28593;-89
2021/04/26 08:34:07;;;;;;;9.40;4.00;;;;;;;10.35;32.24;99452.20;4353951;80;28588;-86
2021/04/26 08:40:11;;;;;;;8.78;2.60;;;;;;;11.52;32.05;99436.33;4352410;81;28603;-89
2021/04/26 08:46:15;;;;;;;5.35;2.40;;;;;;;11.48;30.85;99439.16;4352635;80;28648;-88
2021/04/26 08:52:18;;;;;;;4.47;1.55;;;;;;;10.85;30.95;99452.73;4373364;80;28551;-88
2021/04/26 08:58:20;;;;;;;4.78;1.80;;;;;;;11.41;29.99;99440.09;4391045;80;28701;-89
2021/04/26 09:04:22;;;;;;;4.87;1.57;;;;;;;12.07;29.16;99430.50;4392040;80;28573;-95
2021/04/26 09:10:40;;;;;;;5.85;2.62;;;;;;;11.32;29.57;99440.61;4336823;82;28524;-96
2021/04/26 09:16:43;;;;;;;7.17;2.00;;;;;;;11.46;29.64;99444.80;4403235;81;28605;-92
2021/04/26 09:22:58;;;;;;;6.70;1.85;;;;;;;12.13;29.02;99426.86;4400607;80;28605;-94
2021/04/26 09:29:22;;;;;;;6.17;2.10;;;;;;;12.72;28.70;99433.37;4405711;80;28584;-94
2021/04/26 09:35:31;;;;;;;4.60;1.42;;;;;;;12.68;27.79;99427.07;4362388;80;28580;-95
2021/04/26 09:41:34;;;;;;;3.42;1.60;;;;;;;12.93;26.37;99422.47;4362464;82;28539;-94
2021/04/26 09:47:38;;;;;;;5.30;1.60;;;;;;;12.46;27.59;99414.72;4337444;82;28666;-94
2021/04/26 09:53:51;;;;;;;4.10;1.60;;;;;;;11.54;28.47;99415.38;4378941;81;28619;-92
2021/04/26 09:59:55;;;;;;;4.75;1.92;;;;;;;11.95;27.63;99415.09;4358233;81;28602;-94
2021/04/26 10:05:58;;;;;;;4.75;1.60;;;;;;;11.88;29.01;99422.98;4374408;80;28653;-86
2021/04/26 10:12:01;;;;;;;4.85;1.60;;;;;;;12.20;27.81;99426.23;4364908;80;28610;-90
2021/04/26 10:18:08;;;;;;;2.98;1.22;;;;;;;12.44;27.84;99424.09;4361086;80;28643;-85
2021/04/26 10:24:15;;;;;;;4.70;1.75;;;;;;;13.27;26.46;99390.22;4347867;80;28558;-88
2021/04/26 10:30:19;;;;;;;3.83;1.45;;;;;;;13.07;27.12;99400.09;4374222;80;28646;-88
2021/04/26 10:36:50;;;;;;;4.65;1.72;;;;;;;13.04;26.68;99404.63;4350188;80;28613;-89
2021/04/26 10:42:53;;;;;;;4.55;1.75;;;;;;;13.04;26.75;99395.98;4368700;80;28681;-89
2021/04/26 10:49:12;;;;;;;4.55;1.50;;;;;;;13.60;27.66;99372.52;4363931;80;28585;-91
2021/04/26 10:55:26;;;;;;;3.10;1.60;;;;;;;12.93;27.21;99377.44;4385398;80;28571;-87
2021/04/26 11:01:46;;;;;;;4.03;1.60;;;;;;;13.17;27.04;99377.36;4313605;81;28571;-90
2021/04/26 11:14:06;;;;;;;2.47;1.30;;;;;;;14.48;25.72;99354.16;4443111;78;85655;-87
2021/04/26 11:20:18;;;;;;;4.20;1.40;;;;;;;14.24;26.05;99356.24;4417866;80;28545;-87
2021/04/26 11:26:23;;;;;;;3.62;1.40;;;;;;;14.05;25.44;99353.24;4393554;80;28642;-84
2021/04/26 11:32:27;;;;;;;4.97;1.20;;;;;;;14.58;26.59;99343.48;4401655;80;28580;-87
2021/04/26 11:38:31;;;;;;;4.17;1.45;;;;;;;12.85;26.60;99345.93;4406180;80;28628;-87
2021/04/26 11:44:37;;;;;;;6.35;1.60;;;;;;;14.47;26.73;99332.21;4402961;80;28598;-86
2021/04/26 11:50:42;;;;;;;4.25;1.70;;;;;;;14.11;26.29;99335.25;4405302;80;28568;-88
2021/04/26 11:57:23;;;;;;;5.35;1.90;;;;;;;14.31;25.42;99339.29;4401737;80;28574;-86
2021/04/26 12:03:25;;;;;;;3.80;1.77;;;;;;;14.74;25.52;99309.87;4178880;81;28688;-85
2021/04/26 12:09:29;;;;;;;4.60;1.60;;;;;;;14.87;25.67;99303.27;4246172;83;28599;-87
2021/04/26 12:15:37;;;;;;;3.85;1.40;;;;;;;15.30;26.35;99295.30;4233543;83;28574;-87
2021/04/26 12:21:40;;;;;;;4.30;1.72;;;;;;;15.01;24.22;99298.28;4249189;84;28611;-87
2021/04/26 12:27:44;;;;;;;4.80;1.72;;;;;;;14.24;25.90;99298.91;4250298;84;28579;-88
2021/04/26 12:33:47;;;;;;;4.40;1.62;;;;;;;14.72;25.16;99288.46;4229618;84;28587;-87
2021/04/26 12:39:51;;;;;;;4.10;1.52;;;;;;;14.78;25.55;99286.11;4244678;84;28633;-87
2021/04/26 12:45:53;;;;;;;3.98;1.50;;;;;;;14.69;24.57;99265.94;4231023;84;28609;-88
2021/04/26 12:51:55;;;;;;;3.40;1.62;;;;;;;14.85;24.72;99265.61;4217760;84;28618;-87
2021/04/26 12:58:29;;;;;;;3.45;1.60;;;;;;;14.37;24.95;99245.00;4255310;82;28652;-89
2021/04/26 13:04:37;;;;;;;5.22;1.22;;;;;;;14.13;25.27;99240.34;4249536;82;28610;-89
2021/04/26 13:10:40;;;;;;;3.55;1.32;;;;;;;13.76;25.25;99237.15;4282589;81;28612;-84
2021/04/26 13:16:43;;;;;;;3.22;1.60;;;;;;;14.26;24.82;99221.05;4329741;81;28603;-84
2021/04/26 13:22:46;;;;;;;4.40;1.67;;;;;;;14.21;25.24;99204.77;4343995;81;28589;-83
2021/04/26 13:28:49;;;;;;;3.90;1.80;;;;;;;14.57;25.24;99192.21;4355449;81;28570;-83
2021/04/26 13:34:52;;;;;;;3.33;1.50;;;;;;;13.82;24.70;99208.31;4346971;81;28615;-84
2021/04/26 13:40:54;;;;;;;3.58;1.60;;;;;;;13.62;25.60;99201.55;4346814;81;28593;-83
2021/04/26 13:46:56;;;;;;;4.50;1.85;;;;;;;13.61;25.24;99188.27;4339689;81;28575;-84
2021/04/26 13:52:58;;;;;;;3.80;1.90;;;;;;;12.74;25.19;99181.16;4335576;81;28585;-85
2021/04/26 13:59:01;;;;;;;4.60;1.67;;;;;;;13.94;25.12;99161.72;4336428;81;28575;-84
2021/04/26 14:05:04;;;;;;;4.83;1.80;;;;;;;13.72;24.74;99147.37;4335447;81;28643;-86
2021/04/26 14:11:07;;;;;;;4.67;1.65;;;;;;;13.86;24.56;99155.94;4336303;81;28662;-83
2021/04/26 14:17:09;;;;;;;2.92;1.42;;;;;;;13.53;25.63;99149.80;4272452;82;28657;-84
2021/04/26 14:23:14;;;;;;;3.85;1.70;;;;;;;13.52;25.35;99138.72;4273076;83;28576;-85
2021/04/26 14:29:16;;;;;;;5.55;1.72;;;;;;;13.82;25.33;99135.88;4275609;82;28573;-84
2021/04/26 14:35:19;;;;;;;4.75;1.80;;;;;;;13.13;25.84;99131.91;4295964;81;28578;-85
2021/04/26 14:41:23;;;;;;;5.42;1.52;;;;;;;13.72;24.35;99127.91;4299507;81;28659;-84
2021/04/26 14:47:25;;;;;;;2.83;1.45;;;;;;;13.36;24.85;99111.19;4291527;81;28620;-85
2021/04/26 14:53:28;;;;;;;4.72;1.75;;;;;;;13.01;24.29;99113.09;4285593;82;28567;-86
2021/04/26 14:59:31;;;;;;;5.03;1.77;;;;;;;13.80;24.61;99092.91;4285467;81;28605;-85
2021/04/26 15:05:33;;;;;;;4.20;1.40;;;;;;;13.47;25.07;99096.80;4274791;82;28961;-84
2021/04/26 15:11:36;;;;;;;3.65;1.60;;;;;;;13.03;25.03;99108.26;4255106;82;28618;-83
2021/04/26 15:17:39;;;;;;;4.60;1.62;;;;;;;13.60;24.44;99094.27;4262035;82;28612;-83
2021/04/26 15:23:43;;;;;;;3.22;1.50;;;;;;;13.11;24.89;99086.78;4315550;81;28650;-83
2021/04/26 15:29:45;;;;;;;5.10;1.87;;;;;;;13.24;24.82;99089.67;4279947;82;28668;-82
2021/04/26 15:35:51;;;;;;;5.85;1.47;;;;;;;14.02;23.14;99071.81;4297218;82;28578;-84
2021/04/26 15:41:54;;;;;;;;;;;;;;;13.94;23.17;99066.30;4309241;82;28604;-84
2021/04/26 15:47:58;;;;;;;3.75;1.25;;;;;;;14.19;23.05;99060.91;4306050;82;20514;-83
2021/04/26 15:54:01;;;;;;;2.77;1.25;;;;;;;13.80;23.51;99055.87;4348290;81;28629;-80
2021/04/26 16:00:09;;;;;;;6.60;1.45;;;;;;;13.65;23.77;99048.95;4291507;82;28625;-81
2021/04/26 16:06:11;;;;;;;4.22;1.70;;;;;;;14.02;23.27;99042.08;4304346;82;28593;-84
2021/04/26 16:12:14;;;;;;;3.33;1.25;;;;;;;13.59;22.95;99044.02;4285458;82;28607;-84
2021/04/26 16:18:17;;;;;;;3.60;1.42;;;;;;;13.43;23.30;99048.34;4315731;82;28687;-81
2021/04/26 16:24:19;;;;;;;3.10;1.40;;;;;;;13.16;23.15;99038.28;4264152;82;28610;-81
2021/04/26 16:30:22;;;;;;;3.40;1.60;;;;;;;12.89;23.94;99044.34;4269193;82;28621;-83
2021/04/26 16:36:26;;;;;;;6.37;2.25;;;;;;;13.06;23.10;99030.03;4214837;84;28619;-85
2021/04/26 16:42:28;;;;;;;3.90;1.50;;;;;;;12.78;23.54;99028.55;4315116;81;28580;-82
2021/04/26 16:48:31;;;;;;;4.15;1.90;;;;;;;12.37;24.52;99031.92;4280163;81;28582;-81
2021/04/26 16:54:35;;;;;;;5.17;1.70;;;;;;;12.39;23.58;99030.63;4291853;82;28621;-84
2021/04/26 17:00:40;;;;;;;3.72;2.00;;;;;;;12.58;25.37;99033.61;4307864;82;28573;-81
2021/04/26 17:06:42;;;;;;;4.78;1.70;;;;;;;11.91;27.70;99030.52;4254125;82;28637;-85
2021/04/26 17:12:45;;;;;;;4.70;1.90;;;;;;;11.30;28.35;99039.80;4331243;81;28623;-85
2021/04/26 17:18:47;;;;;;;4.87;1.90;;;;;;;11.90;27.71;99032.37;4297391;81;28628;-82
2021/04/26 17:24:51;;;;;;;5.50;1.70;;;;;;;11.78;27.99;99040.52;4258504;83;28574;-82
2021/04/26 17:30:53;;;;;;;5.58;2.08;;;;;;;11.56;28.21;99039.81;4274287;83;28564;-84
2021/04/26 17:36:55;;;;;;;5.78;1.95;;;;;;;11.21;28.43;99049.28;4274476;83;28624;-81
2021/04/26 17:42:57;;;;;;;4.22;1.77;;;;;;;11.00;29.07;99050.97;4303453;81;28656;-81
2021/04/26 17:49:00;;;;;;;5.08;1.45;;;;;;;11.21;28.61;99045.25;4318377;82;28574;-87
2021/04/26 17:55:05;;;;;;;5.08;2.00;;;;;;;10.76;29.58;99043.41;4351217;81;28588;-88
2021/04/26 18:01:10;;;;;;;7.33;2.02;;;;;;;11.01;28.84;99043.73;4413946;80;28567;-89
2021/04/26 18:07:14;;;;;;;;;;;;;;;11.10;29.06;99056.30;4428987;80;28611;-85
2021/04/26 18:13:16;;;;;;;4.40;1.72;;;;;;;10.76;29.04;99057.39;4403630;80;20554;-88
2021/04/26 18:19:21;;;;;;;7.77;2.50;;;;;;;10.68;29.43;99075.48;4409059;80;28579;-82
2021/04/26 18:25:24;;;;;;;6.10;2.20;;;;;;;10.74;29.41;99074.58;4438447;80;28595;-81
2021/04/26 18:31:26;;;;;;;5.30;2.30;;;;;;;10.97;29.42;99082.38;4422194;80;28940;-85
2021/04/26 18:37:28;;;;;;;4.90;2.15;;;;;;;11.03;29.32;99080.63;4421218;80;28601;-84
2021/04/26 18:43:35;;;;;;;5.80;2.30;;;;;;;10.66;30.24;99087.52;4340474;81;28584;-85
2021/04/26 18:49:37;;;;;;;;;;;;;;;10.56;29.92;99096.95;4452067;80;28589;-83
2021/04/26 18:55:39;;;;;;;7.33;3.10;;;;;;;10.02;30.74;99099.54;4423513;80;20481;-85
2021/04/26 19:01:42;;;;;;;10.82;3.60;;;;;;;10.28;30.65;99099.72;4443134;80;28595;-84
2021/04/26 19:07:45;;;;;;;7.97;3.25;;;;;;;9.87;31.22;99105.30;4441708;80;28679;-83
2021/04/26 19:13:47;;;;;;;9.48;3.25;;;;;;;10.14;31.12;99111.67;4372478;80;28583;-83
2021/04/26 19:19:49;;;;;;;8.43;3.83;;;;;;;10.09;31.39;99107.52;4329509;81;28579;-83
2021/04/26 19:25:51;;;;;;;10.72;3.50;;;;;;;10.23;31.46;99110.31;4331452;81;28611;-82
2021/04/26 19:31:53;;;;;;;10.05;3.83;;;;;;;10.01;32.30;99111.34;4320901;81;28604;-84
2021/04/26 19:37:57;;;;;;;8.10;3.33;;;;;;;10.00;32.37;99111.84;4362197;81;28566;-84
2021/04/26 19:43:59;;;;;;;10.82;3.67;;;;;;;10.46;32.58;99111.48;4205925;84;28601;-84
2021/04/26 19:50:04;;;;;;;8.53;3.55;;;;;;;10.26;32.73;99111.22;4222848;84;28640;-83
2021/04/26 19:56:07;;;;;;;11.28;3.85;;;;;;;10.01;33.69;99115.36;4189028;84;28650;-85
2021/04/26 20:02:10;;;;;;;15.48;5.40;;;;;;;10.09;33.64;99116.37;4211352;84;28582;-85
2021/04/26 20:08:12;;;;;;;14.13;4.83;;;;;;;9.85;33.92;99112.77;4331529;81;28558;-84
2021/04/26 20:14:15;;;;;;;10.32;4.37;;;;;;;10.13;34.01;99110.03;4378201;80;28639;-87
2021/04/26 20:20:19;;;;;;;13.32;4.28;;;;;;;10.51;33.79;99102.22;4404000;80;28580;-83
2021/04/26 20:26:21;;;;;;;11.75;4.83;;;;;;;10.21;36.41;99105.70;4392796;79;28596;-86
2021/04/26 20:32:24;;;;;;;11.65;4.87;;;;;;;10.03;35.67;99093.13;4451712;79;28752;-85
2021/04/26 20:38:28;;;;;;;12.10;5.47;;;;;;;10.14;34.51;99093.70;4406989;80;28626;-83
2021/04/26 20:44:30;;;;;;;17.57;6.17;;;;;;;9.92;34.78;99097.91;4425423;80;29063;-85
2021/04/26 20:50:33;;;;;;;10.72;4.67;;;;;;;9.86;34.44;99094.27;4432371;80;28571;-84
2021/04/26 20:56:35;;;;;;;16.48;5.58;;;;;;;10.03;36.88;99101.98;4435237;80;28575;-84
2021/04/26 21:02:38;;;;;;;11.83;4.35;;;;;;;9.96;35.88;99101.27;4401685;80;28609;-83
2021/04/26 21:08:40;;;;;;;13.53;5.78;;;;;;;9.89;37.50;99097.83;4401257;80;28566;-83
2021/04/26 21:14:42;;;;;;;15.20;6.15;;;;;;;9.97;35.68;99102.06;4380731;80;28617;-83
2021/04/26 21:20:44;;;;;;;16.10;6.00;;;;;;;10.04;35.60;99106.30;4347633;81;28591;-82
2021/04/26 21:26:46;;;;;;;16.70;7.08;;;;;;;9.85;38.25;99102.83;4371791;80;28684;-86
2021/04/26 21:32:48;;;;;;;18.90;6.45;;;;;;;9.71;36.24;99106.18;4347874;81;28602;-85
2021/04/26 21:38:51;;;;;;;13.62;5.92;;;;;;;10.07;33.97;99106.39;4379932;81;28641;-86
2021/04/26 21:44:53;;;;;;;10.32;4.97;;;;;;;9.45;36.07;99104.09;4367803;80;28658;-86
2021/04/26 21:50:55;;;;;;;11.50;4.62;;;;;;;9.82;35.06;99106.48;4380460;80;28640;-85
2021/04/26 21:56:57;;;;;;;13.03;4.80;;;;;;;9.90;35.75;99107.53;4381562;80;28571;-86
2021/04/26 22:03:01;;;;;;;10.88;4.25;;;;;;;9.93;36.30;99111.64;4380490;80;28569;-88
2021/04/26 22:09:06;;;;;;;7.92;3.72;;;;;;;9.81;35.66;99112.39;4380947;80;28624;-88
2021/04/26 22:15:10;;;;;;;12.53;4.55;;;;;;;10.01;34.48;99111.34;4364188;80;28572;-87
2021/04/26 22:21:12;;;;;;;10.03;3.90;;;;;;;9.82;34.37;99114.03;4388793;79;28610;-86
2021/04/26 22:27:15;;;;;;;8.38;3.65;;;;;;;9.88;33.60;99114.45;4400467;80;28596;-86
2021/04/26 22:33:17;;;;;;;11.12;4.67;;;;;;;10.04;33.21;99117.05;4364195;80;28567;-87
2021/04/26 22:39:19;;;;;;;9.38;4.53;;;;;;;10.06;33.47;99104.75;4381784;80;28653;-88
2021/04/26 22:45:22;;;;;;;9.10;4.33;;;;;;;10.02;34.37;99108.41;4368813;80;28569;-87
2021/04/26 22:51:24;;;;;;;11.38;4.58;;;;;;;9.86;35.89;99107.69;4302124;82;28650;-85
2021/04/26 22:57:26;;;;;;;14.05;7.00;;;;;;;9.83;35.71;99102.75;4278277;82;28577;-86
2021/04/26 23:03:29;;;;;;;19.00;7.83;;;;;;;9.67;37.09;99105.00;4297508;81;28582;-87
2021/04/26 23:09:31;;;;;;;21.17;8.10;;;;;;;9.66;37.64;99102.53;4283769;82;28574;-86
2021/04/26 23:15:33;;;;;;;18.55;8.68;;;;;;;9.01;39.47;99109.44;4331640;81;28631;-85
2021/04/26 23:21:35;;;;;;;15.60;6.72;;;;;;;9.45;38.09;99094.70;4338643;81;28591;-85
2021/04/26 23:27:38;;;;;;;19.95;8.18;;;;;;;9.76;38.51;99104.17;4314004;81;28551;-86
2021/04/26 23:33:40;;;;;;;18.32;6.95;;;;;;;9.53;38.89;99092.23;4425000;80;28596;-87
2021/04/26 23:39:42;;;;;;;18.95;7.85;;;;;;;8.90;40.34;99092.72;4422886;80;28581;-86
2021/04/26 23:45:44;;;;;;;18.55;7.60;;;;;;;9.25;40.14;99077.45;4447557;80;28573;-87
2021/04/26 23:51:46;;;;;;;19.87;8.08;;;;;;;8.85;40.22;99079.97;4264150;83;28661;-87
2021/04/26 23:57:48;;;;;;;18.67;7.33;;;;;;;8.77;39.24;99080.23;4301134;82;28577;-86
